Time;durP1;ratioP1;P1;durP2;ratioP2;P2;SDS_P1;SDS_P2;PMS_P1;PMS_P2;Temp;Humidity;BMP_temperature;BMP_pressure;BME280_temperature;BME280_humidity;BME280_pressure;Samples;Min_cycle;Max_cycle;Signal;HPM_P1;HPM_P2
2022/03/14 00:02:23;;;;;;;5.80;3.40;;;;;;;-2.15;58.91;100522.03;105017;1273;61120;-29
2022/03/14 00:04:54;;;;;;;4.00;2.20;;;;;;;-2.15;59.28;100524.76;105104;1273;73906;-30
2022/03/14 00:07:24;;;;;;;3.10;2.10;;;;;;;-2.17;59.21;100522.55;105108;1274;76152;-30
2022/03/14 00:10:15;;;;;;;5.10;2.90;;;;;;;-2.17;59.10;100522.55;105095;1273;74389;-29
2022/03/14 00:12:55;;;;;;;5.70;3.40;;;;;;;-2.14;58.71;100520.33;104805;1274;61075;-30
2022/03/14 00:15:29;;;;;;;7.40;3.60;;;;;;;-2.14;58.68;100520.33;104852;1274;61134;-30
2022/03/14 00:18:00;;;;;;;4.30;2.50;;;;;;;-2.14;59.16;100518.63;104666;1273;74754;-30
2022/03/14 00:20:30;;;;;;;2.90;2.30;;;;;;;-2.13;59.32;100520.16;104789;1274;76141;-29
2022/03/14 00:22:59;;;;;;;6.60;2.30;;;;;;;-2.16;59.63;100522.89;104737;1273;73374;-30
2022/03/14 00:25:30;;;;;;;4.90;2.90;;;;;;;-2.16;59.23;100516.94;105058;1273;61151;-28
2022/03/14 00:27:59;;;;;;;2.60;2.00;;;;;;;-2.16;59.88;100518.63;105100;1273;61155;-30
2022/03/14 00:30:28;;;;;;;3.20;2.40;;;;;;;-2.18;60.16;100521.36;104807;1274;74528;-29
2022/03/14 00:32:57;;;;;;;3.40;2.20;;;;;;;-2.21;59.85;100520.55;104741;1273;75106;-29
2022/03/14 00:35:28;;;;;;;8.30;2.70;;;;;;;-2.22;59.81;100526.85;104604;1275;73453;-29
2022/03/14 00:37:57;;;;;;;7.00;3.40;;;;;;;-2.22;60.03;100528.73;104665;1274;61137;-30
2022/03/14 00:40:26;;;;;;;5.90;3.60;;;;;;;-2.21;59.47;100522.59;104661;1276;62076;-30
2022/03/14 00:42:55;;;;;;;2.80;2.30;;;;;;;-2.19;59.26;100519.84;104799;1274;73746;-31
2022/03/14 00:45:25;;;;;;;3.50;2.40;;;;;;;-2.18;59.30;100520.02;104717;1275;76170;-30
2022/03/14 00:47:56;;;;;;;4.80;2.10;;;;;;;-2.18;59.38;100520.85;104626;1276;74617;-29
2022/03/14 00:50:25;;;;;;;2.60;1.70;;;;;;;-2.18;59.22;100521.55;104852;1274;61018;-32
2022/03/14 00:52:55;;;;;;;4.80;3.00;;;;;;;-2.19;59.21;100521.03;104588;1275;60989;-29
2022/03/14 00:55:24;;;;;;;8.90;4.10;;;;;;;-2.16;59.32;100524.08;104631;1277;74732;-29
2022/03/14 00:57:53;;;;;;;7.10;4.20;;;;;;;-2.15;59.30;100522.55;104629;1275;75917;-29
2022/03/14 01:00:22;;;;;;;5.50;3.50;;;;;;;-2.15;59.31;100522.89;104586;1274;74425;-29
2022/03/14 01:02:52;;;;;;;4.00;2.90;;;;;;;-2.16;59.59;100522.38;104558;1276;62220;-31
2022/03/14 01:05:21;;;;;;;5.20;3.00;;;;;;;-2.19;59.95;100525.97;104624;1276;62262;-30
2022/03/14 01:07:50;;;;;;;10.10;4.50;;;;;;;-2.17;58.94;100528.67;104739;1276;73938;-29
2022/03/14 01:10:20;;;;;;;7.00;3.20;;;;;;;-2.15;58.82;100529.01;104703;1276;76011;-30
2022/03/14 01:12:49;;;;;;;5.10;2.20;;;;;;;-2.14;59.24;100533.77;104432;1275;74279;-30
2022/03/14 01:15:20;;;;;;;5.50;3.80;;;;;;;-2.16;59.50;100532.08;104616;1277;61118;-30
2022/03/14 01:17:49;;;;;;;6.80;3.10;;;;;;;-2.17;59.62;100537.19;104713;1274;61954;-29
2022/03/14 01:20:19;;;;;;;3.70;2.10;;;;;;;-2.19;59.65;100536.52;104666;1276;73791;-30
2022/03/14 01:22:48;;;;;;;4.80;2.80;;;;;;;-2.19;59.54;100534.98;104982;1273;75833;-29
2022/03/14 01:25:17;;;;;;;6.60;3.30;;;;;;;-2.19;59.38;100537.36;104936;1273;74426;-29
2022/03/14 01:27:46;;;;;;;6.40;3.70;;;;;;;-2.19;59.72;100537.36;105036;1273;61448;-30
2022/03/14 01:30:15;;;;;;;6.70;3.70;;;;;;;-2.20;59.80;100537.89;105073;1273;63708;-30
2022/03/14 01:32:47;;;;;;;4.90;2.80;;;;;;;-2.20;59.81;100544.19;105113;1273;73927;-30
2022/03/14 01:35:17;;;;;;;6.80;3.60;;;;;;;-2.22;60.20;100546.58;104877;1273;75050;-28
2022/03/14 01:37:50;;;;;;;4.80;2.80;;;;;;;-2.22;60.24;100550.67;105131;1273;74128;-28
2022/03/14 01:40:24;;;;;;;4.90;2.90;;;;;;;-2.23;60.65;100552.04;105111;1273;61212;-28
2022/03/14 01:42:53;;;;;;;4.20;2.60;;;;;;;-2.25;60.43;100552.04;105119;1273;62139;-29
2022/03/14 01:45:23;;;;;;;5.00;3.10;;;;;;;-2.26;60.25;100549.84;105127;1273;72788;-28
2022/03/14 01:47:52;;;;;;;6.40;4.10;;;;;;;-2.25;59.97;100552.21;105162;1273;75773;-28
2022/03/14 01:50:21;;;;;;;3.30;2.50;;;;;;;-2.24;59.98;100556.46;105122;1274;74245;-28
2022/03/14 01:52:51;;;;;;;3.30;2.00;;;;;;;-2.25;59.90;100557.99;104766;1275;61146;-28
2022/03/14 01:55:20;;;;;;;4.40;3.20;;;;;;;-2.25;60.46;100558.51;104858;1273;62235;-28
2022/03/14 01:57:49;;;;;;;7.00;3.80;;;;;;;-2.27;60.59;100563.27;104896;1273;74836;-29
2022/03/14 02:00:18;;;;;;;5.70;3.60;;;;;;;-2.26;60.21;100561.23;104617;1274;76089;-28
2022/03/14 02:02:48;;;;;;;5.40;3.20;;;;;;;-2.26;59.92;100565.65;104879;1273;74444;-28
2022/03/14 02:05:19;;;;;;;6.00;3.80;;;;;;;-2.25;59.62;100569.41;104910;1273;61114;-28
2022/03/14 02:07:49;;;;;;;5.80;2.90;;;;;;;-2.23;59.85;100566.67;105017;1273;61244;-29
2022/03/14 02:10:23;;;;;;;6.00;3.40;;;;;;;-2.22;59.66;100570.41;105109;1273;74842;-28
2022/03/14 02:12:53;;;;;;;4.70;3.50;;;;;;;-2.21;59.97;100572.63;104957;1273;75990;-31
2022/03/14 02:15:33;;;;;;;4.10;3.20;;;;;;;-2.22;60.02;100575.86;104841;1273;74415;-30
2022/03/14 02:18:02;;;;;;;4.70;2.80;;;;;;;-2.22;60.07;100578.40;104912;1273;61131;-29
2022/03/14 02:20:33;;;;;;;4.80;2.20;;;;;;;-2.23;60.30;100576.55;104778;1272;61002;-31
2022/03/14 02:23:02;;;;;;;3.10;2.10;;;;;;;-2.25;59.96;100577.91;104616;1273;74504;-29
2022/03/14 02:25:34;;;;;;;3.50;2.70;;;;;;;-2.27;60.16;100581.82;104814;1273;75460;-29
2022/03/14 02:28:04;;;;;;;5.20;3.30;;;;;;;-2.23;59.94;100581.47;104868;1273;74221;-29
2022/03/14 02:30:33;;;;;;;4.40;3.30;;;;;;;-2.22;59.94;100586.24;104934;1273;61586;-29
2022/03/14 02:33:03;;;;;;;6.60;3.30;;;;;;;-2.21;59.83;100589.30;105067;1273;62388;-29
2022/03/14 02:35:32;;;;;;;3.80;2.60;;;;;;;-2.22;60.00;100589.80;104972;1274;74860;-29
2022/03/14 02:38:02;;;;;;;6.60;3.60;;;;;;;-2.21;59.95;100593.88;105113;1273;76035;-29
2022/03/14 02:40:32;;;;;;;6.80;3.70;;;;;;;-2.21;59.85;100591.67;104987;1273;74728;-29
2022/03/14 02:43:01;;;;;;;5.70;3.70;;;;;;;-2.21;59.86;100595.42;104879;1273;61048;-29
2022/03/14 02:45:32;;;;;;;3.80;2.30;;;;;;;-2.22;60.38;100597.13;104795;1273;61339;-29
2022/03/14 02:48:01;;;;;;;4.40;3.10;;;;;;;-2.25;60.26;100594.08;105075;1273;73702;-29
2022/03/14 02:50:32;;;;;;;5.00;2.80;;;;;;;-2.23;59.97;100595.77;105140;1273;75840;-29
2022/03/14 02:53:01;;;;;;;4.50;3.00;;;;;;;-2.22;59.66;100599.85;105081;1273;74468;-29
2022/03/14 02:55:30;;;;;;;4.80;2.90;;;;;;;-2.21;59.58;100601.52;105119;1274;61893;-29
2022/03/14 02:57:59;;;;;;;7.40;3.90;;;;;;;-2.20;59.95;100598.46;105123;1273;62199;-29
2022/03/14 03:00:29;;;;;;;4.30;2.30;;;;;;;-2.20;59.78;100597.95;105113;1274;74828;-29
2022/03/14 03:02:58;;;;;;;5.30;2.90;;;;;;;-2.21;59.93;100598.13;105084;1274;74862;-29
2022/03/14 03:05:30;;;;;;;4.30;3.10;;;;;;;-2.21;60.13;100596.59;105084;1273;74630;-30
2022/03/14 03:08:03;;;;;;;6.40;3.20;;;;;;;-2.21;60.24;100599.32;105100;1274;61192;-29
2022/03/14 03:10:34;;;;;;;4.50;3.10;;;;;;;-2.21;60.27;100598.14;105041;1273;62333;-29
2022/03/14 03:13:04;;;;;;;7.60;3.30;;;;;;;-2.23;60.59;100595.59;105044;1274;74690;-29
2022/03/14 03:15:37;;;;;;;5.10;3.10;;;;;;;-2.24;60.68;100600.36;105123;1273;76141;-28
2022/03/14 03:18:06;;;;;;;4.20;2.70;;;;;;;-2.26;61.26;100599.35;105092;1274;74395;-29
2022/03/14 03:20:38;;;;;;;3.90;2.70;;;;;;;-2.28;61.11;100601.05;105109;1273;61085;-29
2022/03/14 03:23:08;;;;;;;4.30;2.90;;;;;;;-2.29;60.92;100601.23;105100;1273;61390;-30
2022/03/14 03:25:38;;;;;;;4.90;3.00;;;;;;;-2.31;60.77;100599.70;105114;1273;74689;-29
2022/03/14 03:28:07;;;;;;;3.90;3.10;;;;;;;-2.31;60.67;100601.05;105122;1274;76155;-29
2022/03/14 03:30:36;;;;;;;6.80;4.00;;;;;;;-2.31;60.75;100599.02;104951;1273;74471;-30
2022/03/14 03:33:05;;;;;;;5.40;3.10;;;;;;;-2.31;60.89;100600.39;105141;1273;61892;-27
2022/03/14 03:35:34;;;;;;;4.00;3.00;;;;;;;-2.31;60.94;100600.90;104947;1273;62037;-34
2022/03/14 03:38:03;;;;;;;5.00;3.40;;;;;;;-2.32;60.81;100601.07;104946;1272;74768;-30
2022/03/14 03:40:33;;;;;;;5.70;3.10;;;;;;;-2.32;60.87;100600.90;104949;1273;74921;-33
2022/03/14 03:43:02;;;;;;;4.10;1.80;;;;;;;-2.34;61.20;100601.59;105092;1273;74399;-30
2022/03/14 03:45:31;;;;;;;5.40;2.00;;;;;;;-2.35;60.86;100601.25;104830;1273;61177;-30
2022/03/14 03:48:00;;;;;;;2.00;1.50;;;;;;;-2.35;60.42;100601.08;105056;1273;61105;-30
2022/03/14 03:50:36;;;;;;;5.00;2.90;;;;;;;-2.36;60.70;100603.80;105141;1273;73849;-30
2022/03/14 03:53:05;;;;;;;5.60;3.00;;;;;;;-2.36;60.46;100601.92;104701;1274;74995;-30
2022/03/14 03:55:34;;;;;;;4.90;3.10;;;;;;;-2.38;60.53;100599.20;104973;1274;74256;-30
2022/03/14 03:58:04;;;;;;;4.10;2.80;;;;;;;-2.36;60.33;100602.44;105111;1273;62086;-30
2022/03/14 04:00:33;;;;;;;3.60;2.20;;;;;;;-2.37;60.58;100605.16;105157;1273;61212;-30
2022/03/14 04:03:04;;;;;;;5.20;3.20;;;;;;;-2.36;60.42;100606.52;104974;1273;75342;-30
2022/03/14 04:05:39;;;;;;;4.40;2.80;;;;;;;-2.35;60.29;100608.57;105052;1274;73982;-30
2022/03/14 04:08:11;;;;;;;5.00;3.10;;;;;;;-2.36;60.88;100612.98;104740;1274;74862;-30
2022/03/14 04:10:43;;;;;;;6.30;3.90;;;;;;;-2.36;60.71;100616.73;104811;1274;61843;-30
2022/03/14 04:13:14;;;;;;;4.80;2.80;;;;;;;-2.35;60.27;100619.44;104910;1273;62201;-29
2022/03/14 04:15:51;;;;;;;5.10;3.10;;;;;;;-2.35;60.55;100617.75;104747;1274;77523;-29
2022/03/14 04:18:22;;;;;;;3.30;2.40;;;;;;;-2.34;60.56;100620.48;105019;1274;76010;-29
2022/03/14 04:20:57;;;;;;;3.70;2.60;;;;;;;-2.34;60.57;100623.19;105023;1274;73174;-30
2022/03/14 04:23:26;;;;;;;5.40;3.40;;;;;;;-2.35;60.34;100625.40;105109;1274;62241;-30
2022/03/14 04:25:56;;;;;;;3.50;2.60;;;;;;;-2.36;60.49;100623.02;104949;1273;61694;-30
2022/03/14 04:28:25;;;;;;;1.30;1.20;;;;;;;-2.37;60.37;100624.55;105165;1272;77108;-30
2022/03/14 04:30:55;;;;;;;4.20;2.90;;;;;;;-2.39;60.89;100624.05;105089;1273;75985;-31
2022/03/14 04:33:33;;;;;;;4.60;3.20;;;;;;;-2.38;60.32;100628.98;105050;1273;74364;-30
2022/03/14 04:36:04;;;;;;;5.90;3.00;;;;;;;-2.37;60.30;100634.41;104963;1273;62207;-30
2022/03/14 04:38:33;;;;;;;4.90;3.00;;;;;;;-2.41;60.93;100629.15;104787;1274;61165;-30
2022/03/14 04:41:02;;;;;;;5.30;3.40;;;;;;;-2.42;60.31;100633.92;105085;1274;75607;-30
2022/03/14 04:43:35;;;;;;;5.80;3.00;;;;;;;-2.40;60.60;100630.52;104824;1273;75973;-30
2022/03/14 04:46:05;;;;;;;5.20;2.80;;;;;;;-2.39;60.64;100634.09;104869;1274;73264;-30
2022/03/14 04:48:35;;;;;;;3.00;1.70;;;;;;;-2.38;60.68;100632.55;105028;1274;61051;-30
2022/03/14 04:51:04;;;;;;;5.00;3.10;;;;;;;-2.38;60.80;100631.88;105093;1274;62001;-30
2022/03/14 04:53:35;;;;;;;4.90;2.50;;;;;;;-2.39;60.89;100632.56;105071;1274;75406;-30
2022/03/14 04:56:04;;;;;;;4.90;2.60;;;;;;;-2.39;60.62;100634.59;105003;1274;75099;-30
2022/03/14 04:58:33;;;;;;;4.10;2.80;;;;;;;-2.38;60.75;100633.06;105108;1274;74388;-30
2022/03/14 05:01:02;;;;;;;6.20;3.60;;;;;;;-2.34;60.53;100633.73;105085;1274;62258;-29
2022/03/14 05:03:33;;;;;;;2.90;2.00;;;;;;;-2.33;61.12;100635.44;105137;1274;61095;-29
2022/03/14 05:06:03;;;;;;;4.00;2.90;;;;;;;-2.33;60.92;100637.14;105083;1274;75530;-29
2022/03/14 05:08:32;;;;;;;6.70;2.90;;;;;;;-2.32;60.97;100636.63;105051;1273;74828;-29
2022/03/14 05:11:03;;;;;;;3.10;1.90;;;;;;;-2.31;60.80;100638.15;105098;1273;74545;-29
2022/03/14 05:13:32;;;;;;;5.40;3.10;;;;;;;-2.29;60.94;100641.55;105099;1274;62317;-29
2022/03/14 05:16:01;;;;;;;4.70;3.00;;;;;;;-2.28;60.74;100641.55;105032;1273;62123;-29
2022/03/14 05:18:31;;;;;;;5.20;3.30;;;;;;;-2.25;60.86;100644.77;105136;1273;76241;-29
2022/03/14 05:21:01;;;;;;;4.70;2.60;;;;;;;-2.22;61.20;100646.81;104936;1274;75770;-29
2022/03/14 05:23:30;;;;;;;5.90;3.20;;;;;;;-2.22;60.95;100646.48;104832;1272;73276;-29
2022/03/14 05:25:59;;;;;;;3.50;2.50;;;;;;;-2.20;60.94;100652.23;104831;1274;61198;-29
2022/03/14 05:28:28;;;;;;;4.90;2.80;;;;;;;-2.19;60.89;100653.08;104681;1274;61989;-29
2022/03/14 05:30:58;;;;;;;4.60;2.70;;;;;;;-2.18;60.31;100651.04;104929;1274;74295;-29
2022/03/14 05:33:27;;;;;;;4.80;2.30;;;;;;;-2.16;60.57;100657.50;104934;1274;76112;-29
2022/03/14 05:35:56;;;;;;;6.70;3.40;;;;;;;-2.12;60.76;100663.60;105089;1272;74537;-29
2022/03/14 05:38:26;;;;;;;4.80;3.30;;;;;;;-2.08;60.65;100667.67;105029;1273;62092;-29
2022/03/14 05:40:55;;;;;;;6.20;3.80;;;;;;;-2.02;59.92;100669.71;104829;1274;61099;-29
2022/03/14 05:43:26;;;;;;;5.00;3.40;;;;;;;-1.97;59.93;100671.05;105019;1272;75549;-29
2022/03/14 05:45:55;;;;;;;5.30;3.10;;;;;;;-1.91;59.92;100674.60;104884;1272;74982;-29
2022/03/14 05:48:25;;;;;;;4.80;3.40;;;;;;;-1.89;59.58;100671.02;104900;1274;73301;-29
2022/03/14 05:50:54;;;;;;;6.40;3.50;;;;;;;-1.83;59.91;100675.77;104825;1274;61246;-28
2022/03/14 05:53:24;;;;;;;4.50;2.70;;;;;;;-1.79;59.63;100673.38;104773;1271;61078;-29
2022/03/14 05:55:53;;;;;;;6.80;2.90;;;;;;;-1.77;59.38;100675.56;104938;1274;72956;-29
2022/03/14 05:58:22;;;;;;;5.10;3.70;;;;;;;-1.78;59.59;100681.71;104923;1274;75064;-29
2022/03/14 06:00:52;;;;;;;5.90;3.60;;;;;;;-1.74;59.42;100679.63;105058;1274;73594;-29
2022/03/14 06:03:21;;;;;;;4.80;2.60;;;;;;;-1.69;58.93;100681.31;105142;1271;61085;-28
2022/03/14 06:05:51;;;;;;;5.60;2.90;;;;;;;-1.66;58.81;100681.80;105125;1273;61141;-29
2022/03/14 06:08:20;;;;;;;4.60;2.60;;;;;;;-1.62;59.17;100680.77;104850;1272;75390;-29
2022/03/14 06:10:49;;;;;;;4.20;2.50;;;;;;;-1.58;59.29;100681.27;104850;1272;76199;-29
2022/03/14 06:13:18;;;;;;;5.50;3.20;;;;;;;-1.55;59.32;100682.27;104783;1271;74461;-28
2022/03/14 06:15:47;;;;;;;3.80;2.60;;;;;;;-1.55;58.80;100687.72;104845;1274;61109;-28
2022/03/14 06:18:17;;;;;;;6.30;3.70;;;;;;;-1.58;58.79;100690.46;105136;1274;61350;-29
2022/03/14 06:20:47;;;;;;;3.90;2.60;;;;;;;-1.51;58.90;100699.63;105054;1274;75699;-31
2022/03/14 06:23:18;;;;;;;6.30;3.60;;;;;;;-1.58;58.84;100695.59;104934;1274;76086;-29
2022/03/14 06:25:49;;;;;;;3.10;1.70;;;;;;;-1.56;58.74;100694.55;105140;1274;74567;-29
2022/03/14 06:28:18;;;;;;;7.80;3.90;;;;;;;-1.53;58.80;100697.42;105050;1274;61156;-30
2022/03/14 06:30:48;;;;;;;4.20;2.70;;;;;;;-1.52;58.62;100696.89;104961;1274;62109;-29
2022/03/14 06:33:19;;;;;;;7.00;3.50;;;;;;;-1.49;59.06;100699.11;104781;1271;75620;-29
2022/03/14 06:35:50;;;;;;;3.00;1.60;;;;;;;-1.44;58.84;100699.26;104821;1274;75854;-29
2022/03/14 06:38:19;;;;;;;2.20;1.80;;;;;;;-1.42;58.89;100701.45;104641;1274;73771;-29
2022/03/14 06:40:49;;;;;;;4.60;2.40;;;;;;;-1.46;58.33;100706.08;104789;1272;61081;-29
2022/03/14 06:43:19;;;;;;;6.90;3.20;;;;;;;-1.47;58.60;100709.66;104787;1272;62748;-29
2022/03/14 06:45:49;;;;;;;3.80;2.50;;;;;;;-1.41;58.31;100709.13;104984;1274;76381;-29
2022/03/14 06:48:19;;;;;;;6.10;2.90;;;;;;;-1.45;58.44;100715.60;105027;1274;74967;-29
2022/03/14 06:50:48;;;;;;;7.20;3.50;;;;;;;-1.45;58.04;100714.59;104935;1274;73139;-29
2022/03/14 06:53:17;;;;;;;4.50;2.20;;;;;;;-1.44;58.15;100713.73;105041;1274;61223;-29
2022/03/14 06:55:47;;;;;;;7.40;2.80;;;;;;;-1.42;58.15;100718.33;104661;1274;61063;-29
2022/03/14 06:58:16;;;;;;;5.80;3.30;;;;;;;-1.38;58.27;100717.80;104777;1274;74236;-29
2022/03/14 07:00:45;;;;;;;8.00;5.10;;;;;;;-1.36;57.70;100718.29;104840;1274;74791;-29
2022/03/14 07:03:16;;;;;;;7.90;4.80;;;;;;;-1.36;57.91;100718.13;104850;1274;73447;-29
2022/03/14 07:05:46;;;;;;;5.60;3.60;;;;;;;-1.23;57.46;100720.59;104798;1273;61121;-29
2022/03/14 07:08:15;;;;;;;5.80;3.10;;;;;;;-1.05;57.85;100722.52;104805;1272;61544;-29
2022/03/14 07:10:45;;;;;;;4.70;2.70;;;;;;;-0.93;57.75;100720.08;104786;1274;75639;-29
2022/03/14 07:13:16;;;;;;;6.70;2.80;;;;;;;-0.84;57.44;100712.64;104796;1271;74013;-29
2022/03/14 07:15:45;;;;;;;6.00;3.50;;;;;;;-0.76;57.06;100712.27;104759;1272;73376;-29
2022/03/14 07:18:15;;;;;;;6.60;3.30;;;;;;;-0.80;57.18;100712.63;104871;1274;61166;-29
2022/03/14 07:20:44;;;;;;;6.30;3.10;;;;;;;-0.77;57.15;100712.27;104803;1274;62024;-29
2022/03/14 07:23:14;;;;;;;4.50;3.10;;;;;;;-0.77;57.41;100714.66;104935;1271;75580;-29
2022/03/14 07:25:43;;;;;;;5.00;3.10;;;;;;;-0.71;57.54;100716.66;104756;1274;76591;-30
2022/03/14 07:28:12;;;;;;;5.70;3.00;;;;;;;-0.64;57.37;100716.08;104800;1271;74363;-29
2022/03/14 07:30:42;;;;;;;4.60;2.80;;;;;;;-0.63;56.81;100718.80;104892;1271;61097;-30
2022/03/14 07:33:12;;;;;;;5.90;3.50;;;;;;;-0.55;56.80;100719.60;104816;1271;61768;-29
2022/03/14 07:35:41;;;;;;;4.40;2.40;;;;;;;-0.46;56.45;100720.21;104963;1274;75875;-29
2022/03/14 07:38:10;;;;;;;5.50;3.10;;;;;;;-0.30;56.63;100719.37;105049;1274;76146;-30
2022/03/14 07:40:42;;;;;;;7.10;2.80;;;;;;;-0.16;55.93;100716.33;105109;1271;74934;-30
2022/03/14 07:43:12;;;;;;;19.20;4.30;;;;;;;-0.05;55.01;100719.11;105076;1274;61123;-30
2022/03/14 07:45:41;;;;;;;5.10;3.10;;;;;;;0.07;54.43;100714.35;105140;1271;61965;-30
2022/03/14 07:48:13;;;;;;;5.80;3.90;;;;;;;0.24;54.66;100716.05;105106;1272;75560;-30
2022/03/14 07:50:43;;;;;;;7.30;4.10;;;;;;;0.38;54.32;100720.51;105045;1274;73724;-29
2022/03/14 07:53:14;;;;;;;5.60;3.00;;;;;;;0.41;54.26;100718.58;104798;1271;74425;-30
2022/03/14 07:55:43;;;;;;;3.40;2.40;;;;;;;0.58;53.70;100722.28;104813;1274;61079;-29
2022/03/14 07:58:13;;;;;;;7.00;4.10;;;;;;;0.66;52.82;100722.34;105070;1274;61134;-29
2022/03/14 08:01:02;;;;;;;4.90;2.80;;;;;;;0.88;53.09;100720.50;104833;1271;76532;-29
2022/03/14 08:03:32;;;;;;;5.40;3.40;;;;;;;0.81;52.09;100721.80;104847;1271;74194;-30
2022/03/14 08:06:02;;;;;;;6.90;4.00;;;;;;;0.85;52.87;100718.66;104880;1271;74440;-29
2022/03/14 08:08:42;;;;;;;5.00;3.50;;;;;;;0.99;52.09;100716.92;105042;1271;61088;-28
2022/03/14 08:11:28;;;;;;;4.20;3.10;;;;;;;1.12;52.20;100719.13;105123;1271;62030;-28
2022/03/14 08:13:58;;;;;;;7.70;3.80;;;;;;;1.07;51.59;100719.89;105115;1271;75488;-30
2022/03/14 08:16:34;;;;;;;8.20;4.40;;;;;;;1.08;51.88;100724.14;104798;1271;75979;-30
2022/03/14 08:19:04;;;;;;;5.60;2.90;;;;;;;1.29;51.27;100724.68;104841;1271;74202;-28
2022/03/14 08:21:36;;;;;;;7.40;3.40;;;;;;;1.20;50.64;100723.80;104785;1271;61097;-28
2022/03/14 08:24:06;;;;;;;7.10;4.50;;;;;;;1.05;51.39;100721.98;104803;1271;61105;-28
2022/03/14 08:26:36;;;;;;;5.50;3.00;;;;;;;1.07;51.55;100727.23;104750;1274;75596;-28
2022/03/14 08:29:06;;;;;;;4.50;2.80;;;;;;;1.24;51.62;100728.67;104816;1271;76456;-28
2022/03/14 08:31:35;;;;;;;6.30;3.50;;;;;;;1.50;51.01;100732.56;104845;1274;74406;-28
2022/03/14 08:34:14;;;;;;;6.70;4.10;;;;;;;1.58;50.91;100732.05;104724;1271;61185;-28
2022/03/14 08:36:46;;;;;;;9.10;4.80;;;;;;;1.73;50.26;100730.78;104814;1271;61157;-28
2022/03/14 08:39:16;;;;;;;4.90;3.10;;;;;;;2.04;49.16;100730.55;104472;1275;75723;-28
2022/03/14 08:41:45;;;;;;;5.00;3.50;;;;;;;2.44;48.57;100724.29;104837;1271;75716;-28
2022/03/14 08:44:15;;;;;;;7.80;4.10;;;;;;;2.52;48.02;100722.89;104805;1271;72917;-28
2022/03/14 08:46:45;;;;;;;8.70;4.40;;;;;;;2.44;48.50;100723.77;104720;1273;61195;-28
2022/03/14 08:49:14;;;;;;;8.50;5.10;;;;;;;2.70;47.45;100720.12;104614;1274;61189;-29
2022/03/14 08:51:44;;;;;;;5.60;3.10;;;;;;;3.12;46.97;100723.12;104748;1273;75380;-28
2022/03/14 08:54:13;;;;;;;3.90;2.70;;;;;;;3.09;46.09;100722.84;104962;1274;76062;-28
2022/03/14 08:56:42;;;;;;;9.20;4.00;;;;;;;2.84;46.14;100722.73;104937;1273;73532;-28
2022/03/14 08:59:12;;;;;;;7.40;4.30;;;;;;;2.96;46.41;100720.58;104921;1273;61046;-29
2022/03/14 09:01:42;;;;;;;6.80;4.30;;;;;;;3.17;45.79;100719.39;104777;1274;62059;-29
2022/03/14 09:04:11;;;;;;;5.90;3.50;;;;;;;3.58;45.17;100716.33;104732;1273;75482;-28
2022/03/14 09:06:42;;;;;;;6.50;4.10;;;;;;;4.00;44.52;100712.30;104699;1273;76017;-28
2022/03/14 09:09:18;;;;;;;6.40;4.00;;;;;;;4.23;43.28;100713.56;104443;1276;74221;-28
2022/03/14 09:11:49;;;;;;;8.90;4.50;;;;;;;4.44;42.66;100718.81;104758;1273;61631;-28
2022/03/14 09:14:19;;;;;;;6.40;3.50;;;;;;;4.82;42.02;100722.85;104722;1271;62188;-28
2022/03/14 09:16:58;;;;;;;7.90;4.50;;;;;;;5.01;41.52;100718.48;104873;1273;74352;-29
2022/03/14 09:19:35;;;;;;;5.90;3.70;;;;;;;5.25;41.69;100714.11;104871;1273;74873;-28
2022/03/14 09:22:11;;;;;;;7.80;4.00;;;;;;;5.21;41.42;100713.69;104591;1274;74011;-28
2022/03/14 09:24:41;;;;;;;8.00;4.20;;;;;;;5.37;40.36;100714.23;104733;1273;61033;-29
2022/03/14 09:27:11;;;;;;;6.70;4.00;;;;;;;5.11;41.15;100711.44;104601;1274;62022;-28
2022/03/14 09:29:40;;;;;;;6.10;3.80;;;;;;;4.86;41.60;100711.53;104753;1273;74513;-28
2022/03/14 09:32:10;;;;;;;6.80;4.20;;;;;;;4.05;42.61;100702.53;104790;1273;75753;-29
2022/03/14 09:34:39;;;;;;;7.50;4.70;;;;;;;4.18;42.60;100702.70;104761;1273;73071;-28
2022/03/14 09:37:09;;;;;;;5.40;3.70;;;;;;;4.06;42.86;100704.73;104734;1273;61817;-29
2022/03/14 09:39:42;;;;;;;9.20;4.80;;;;;;;4.75;41.76;100707.73;104771;1273;62013;-29
2022/03/14 09:42:12;;;;;;;10.30;5.20;;;;;;;4.45;41.62;100699.35;104760;1273;74567;-29
2022/03/14 09:44:42;;;;;;;7.70;5.40;;;;;;;4.66;41.39;100697.85;104464;1273;75944;-28
2022/03/14 09:47:12;;;;;;;10.20;6.00;;;;;;;4.44;41.91;100696.60;104624;1272;73427;-29
2022/03/14 09:49:43;;;;;;;6.90;4.60;;;;;;;4.63;41.85;100701.07;104743;1273;61174;-29
2022/03/14 09:52:13;;;;;;;7.70;4.60;;;;;;;4.41;42.05;100692.73;104691;1273;61110;-29
2022/03/14 09:54:43;;;;;;;9.20;3.90;;;;;;;4.67;42.17;100689.56;104718;1273;75542;-28
2022/03/14 09:57:14;;;;;;;7.60;4.00;;;;;;;4.22;42.59;100680.08;104806;1273;76051;-29
2022/03/14 09:59:43;;;;;;;6.90;4.40;;;;;;;4.42;41.96;100688.45;104839;1274;74381;-28
2022/03/14 10:02:14;;;;;;;6.60;3.90;;;;;;;4.85;40.88;100682.84;104997;1273;62316;-28
2022/03/14 10:04:44;;;;;;;7.70;4.40;;;;;;;5.32;40.03;100683.38;104959;1272;61004;-29
2022/03/14 10:07:13;;;;;;;7.90;4.20;;;;;;;5.12;40.26;100681.61;104903;1273;74612;-30
2022/03/14 10:10:04;;;;;;;9.20;4.10;;;;;;;5.82;39.35;100680.83;104742;1273;76044;-31
2022/03/14 10:12:34;;;;;;;7.50;4.30;;;;;;;6.16;38.32;100676.33;104661;1273;73323;-32
2022/03/14 10:15:09;;;;;;;4.40;2.70;;;;;;;4.97;40.49;100678.81;104763;1273;62306;-29
2022/03/14 10:17:39;;;;;;;6.20;3.80;;;;;;;4.36;42.52;100675.86;104826;1274;62046;-29
2022/03/14 10:20:09;;;;;;;5.00;3.50;;;;;;;5.04;40.77;100674.11;104947;1273;75787;-29
2022/03/14 10:22:40;;;;;;;7.80;3.90;;;;;;;4.83;40.41;100675.14;104623;1273;76021;-29
2022/03/14 10:25:13;;;;;;;6.20;4.40;;;;;;;5.45;39.51;100669.84;104832;1273;70772;-30
2022/03/14 10:27:54;;;;;;;5.60;3.70;;;;;;;4.88;40.35;100674.81;104783;1274;61068;-31
2022/03/14 10:30:31;;;;;;;8.70;4.20;;;;;;;5.12;40.09;100673.89;104646;1273;61119;-32
2022/03/14 10:33:12;;;;;;;4.70;2.80;;;;;;;5.96;38.65;100676.02;104670;1274;75585;-31
2022/03/14 10:35:44;;;;;;;7.30;4.30;;;;;;;6.31;38.40;100680.98;104959;1273;76037;-29
2022/03/14 10:38:13;;;;;;;6.30;3.80;;;;;;;6.53;37.87;100680.66;104636;1274;74932;-29
2022/03/14 10:40:44;;;;;;;6.60;4.10;;;;;;;6.76;36.86;100675.98;104823;1273;61145;-29
2022/03/14 10:43:28;;;;;;;5.60;3.60;;;;;;;7.21;36.39;100675.39;104633;1273;61236;-29
2022/03/14 10:46:00;;;;;;;8.50;4.60;;;;;;;7.68;35.13;100675.85;105001;1273;74455;-29
2022/03/14 10:48:38;;;;;;;7.30;4.70;;;;;;;7.43;35.28;100671.88;104615;1273;75007;-29
2022/03/14 10:51:09;;;;;;;5.10;3.20;;;;;;;7.24;35.05;100669.92;104655;1273;74530;-29
2022/03/14 10:53:45;;;;;;;5.70;3.20;;;;;;;6.93;36.44;100664.25;104582;1273;62164;-29
2022/03/14 10:56:16;;;;;;;4.90;3.10;;;;;;;6.50;37.24;100659.20;104615;1273;61781;-30
2022/03/14 10:58:45;;;;;;;20.10;4.00;;;;;;;6.08;38.00;100656.27;104660;1273;76137;-29
2022/03/14 11:01:15;;;;;;;6.80;4.20;;;;;;;6.37;37.29;100661.59;104749;1273;75448;-29
2022/03/14 11:03:46;;;;;;;6.00;3.40;;;;;;;6.21;37.84;100654.92;104782;1272;74185;-29
2022/03/14 11:06:21;;;;;;;5.80;2.80;;;;;;;6.50;37.44;100650.39;104721;1273;62202;-29
2022/03/14 11:08:51;;;;;;;4.90;3.70;;;;;;;6.99;36.72;100644.65;104711;1273;61139;-29
2022/03/14 11:11:21;;;;;;;5.60;3.60;;;;;;;7.13;36.36;100639.77;104814;1273;73429;-29
2022/03/14 11:13:57;;;;;;;4.10;3.10;;;;;;;7.09;36.17;100640.63;104632;1273;76064;-29
2022/03/14 11:16:29;;;;;;;6.00;3.30;;;;;;;6.76;36.83;100632.30;104710;1273;73616;-30
2022/03/14 11:18:59;;;;;;;6.20;3.80;;;;;;;7.01;36.56;100634.56;104738;1274;61257;-29
2022/03/14 11:21:32;;;;;;;5.30;3.40;;;;;;;6.93;36.30;100627.65;104737;1273;61147;-29
2022/03/14 11:24:02;;;;;;;6.00;3.30;;;;;;;6.88;36.90;100624.73;104743;1274;75363;-30
2022/03/14 11:26:32;;;;;;;10.00;6.00;;;;;;;6.87;37.04;100620.45;104901;1273;76204;-30
2022/03/14 11:29:01;;;;;;;4.00;2.90;;;;;;;6.06;38.48;100612.89;104888;1273;75974;-30
2022/03/14 11:31:30;;;;;;;4.20;2.90;;;;;;;5.37;39.53;100613.97;104736;1273;61139;-30
2022/03/14 11:34:00;;;;;;;6.10;3.50;;;;;;;6.13;38.26;100616.09;104577;1274;61185;-30
2022/03/14 11:36:31;;;;;;;7.30;4.30;;;;;;;6.60;37.72;100608.96;104804;1273;75534;-30